Latest Weather Observations for Maatsuyker Island

IDT60801

Issued at 7:31 am EST Wednesday 29 July 2015 (issued every 30 minutes, with the page automatically refreshed every 10 minutes)

About weather observations | Map of weather stations | Latest weather observations for TAS | Other Formats
Station Details ID: 094041 Name: MAATSUYKER ISLAND LIGHTHOUSE Lat: -43.66 Lon: 146.27 Height: 146.5 m
Data from the previous 72 hours. | See also: Recent months at Maatsuyker Island
Date/Time
EST
Temp
°C
App
Temp
°C
Dew
Point
Rel
Hum
%
Delta-T
°C
Wind Press
QNH
hPa
Press
MSL
hPa
Rain
since 9 am
mm
Dir
 
Spd
km/h
Gust
km/h
Spd
kts
Gust
kts
29/07:30am 8.1 1.1 7.0 93 0.5 NNW 33 44 18 24 1025.5 - 3.4
29/07:00am 8.2 0.5 7.1 93 0.5 NNW 37 46 20 25 1025.5 - 3.4
29/06:30am 8.3 1.3 7.0 91 0.6 NNW 33 43 18 23 1025.4 - 3.4
29/06:00am 8.6 1.3 7.1 90 0.7 NNW 35 46 19 25 1025.4 1025.6 3.2
29/05:30am 8.3 1.1 7.7 96 0.3 NNW 35 46 19 25 1025.4 - 3.2
29/05:00am 8.4 0.9 8.0 97 0.2 NNW 37 50 20 27 1025.5 - 3.0
29/04:30am 8.7 1.5 7.6 93 0.5 NNW 35 46 19 25 1025.4 - 2.8
29/04:00am 8.8 3.0 7.8 93 0.5 NNW 28 37 15 20 1025.7 - 2.8
29/03:30am 9.2 1.3 7.7 90 0.7 NNW 39 50 21 27 1025.6 - 2.8
29/03:00am 8.9 1.0 7.9 93 0.5 NNW 39 50 21 27 1025.9 1026.1 2.8
29/02:30am 9.2 0.7 8.4 95 0.4 NNW 43 54 23 29 1025.8 - 2.2
29/02:00am 9.5 -0.5 7.8 89 0.8 NW 50 59 27 32 1025.3 - 2.2
29/01:30am 9.7 -1.0 8.0 89 0.8 NW 54 59 29 32 1025.6 - 2.2
29/01:00am 9.5 -1.4 8.7 95 0.4 NW 56 63 30 34 1025.3 - 2.2
29/12:30am 9.9 -0.9 7.8 87 1.0 NW 54 63 29 34 1025.3 - 2.2
29/12:00am 9.8 -1.5 8.1 89 0.8 NW 57 65 31 35 1025.5 1025.7 2.2
 
Date/Time
EST
Temp
°C
App
Temp
°C
Dew
Point
Rel
Hum
%
Delta-T
°C
Wind Press
QNH
hPa
Press
MSL
hPa
Rain
since 9 am
mm
Dir
 
Spd
km/h
Gust
km/h
Spd
kts
Gust
kts
28/11:30pm 9.6 -1.4 8.6 93 0.5 NW 56 61 30 33 1025.8 - 2.2
28/11:00pm 9.6 -1.5 8.6 93 0.5 NW 57 65 31 35 1025.6 - 2.2
28/10:30pm 9.7 -1.4 8.7 93 0.5 NW 57 65 31 35 1026.0 - 2.2
28/10:00pm 9.4 -1.1 9.0 97 0.2 NW 54 61 29 33 1026.3 - 2.0
28/09:30pm 9.5 -1.7 8.5 93 0.5 NW 57 69 31 37 1026.0 - 1.8
28/09:00pm 9.4 -2.0 9.0 97 0.2 NW 59 65 32 35 1026.0 1026.2 1.8
28/08:30pm 9.6 -1.4 9.0 96 0.3 NW 57 67 31 36 1026.0 - 1.8
28/08:00pm 9.6 -1.8 9.0 96 0.3 NW 59 67 32 36 1025.9 - 1.8
28/07:30pm 9.7 -1.4 8.7 93 0.5 NW 57 65 31 35 1025.7 - 1.6
28/07:00pm 9.7 -1.3 9.1 96 0.3 NW 57 63 31 34 1025.8 - 1.6
28/06:30pm 9.7 -1.2 8.9 95 0.4 NW 56 63 30 34 1025.4 - 1.6
28/06:00pm 9.6 -1.4 9.0 96 0.3 NW 57 63 31 34 1025.4 1025.6 1.6
28/05:30pm 9.5 -1.9 9.1 97 0.2 NW 59 65 32 35 1024.9 - 1.6
28/05:00pm 9.7 -1.1 9.3 97 0.2 NW 56 63 30 34 1025.0 - 1.4
28/04:30pm 9.4 -2.4 9.0 97 0.2 NW 61 70 33 38 1024.7 - 1.0
28/04:00pm 9.8 -1.6 9.0 95 0.4 NW 59 67 32 36 1024.5 - 1.0
28/03:30pm 9.8 -1.6 9.2 96 0.3 NW 59 65 32 35 1024.6 - 1.0
28/03:00pm 9.7 -1.2 8.9 95 0.4 W 56 70 30 38 1024.1 1024.3 0.6
28/02:30pm 9.8 -1.6 9.2 96 0.3 NW 59 70 32 38 1023.7 - 0.6
28/02:00pm 9.8 -2.3 9.4 97 0.2 NW 63 70 34 38 1024.0 - 0.4
28/01:30pm 9.9 -1.4 9.5 97 0.2 NW 59 65 32 35 1023.9 - 0.4
28/01:00pm 9.8 -1.2 9.2 96 0.3 NW 57 65 31 35 1023.8 - 0.2
28/12:30pm 9.8 -1.6 9.2 96 0.3 NW 59 69 32 37 1023.8 - 0.2
28/12:00pm 9.9 -2.3 9.1 95 0.4 NW 63 72 34 39 1024.0 1024.2 0.0
28/11:30am 9.9 -1.2 8.9 93 0.5 NW 57 65 31 35 1024.4 - 0.0
28/11:00am 9.8 -1.3 8.6 92 0.6 NW 57 65 31 35 1024.4 - 0.0
28/10:30am 10.0 -2.0 8.1 88 0.9 NW 61 69 33 37 1024.4 - 0.0
28/10:00am 9.9 -1.4 8.0 88 0.9 NW 57 65 31 35 1024.3 - 0.0
28/09:30am 9.8 -1.6 7.5 85 1.1 NW 57 61 31 33 1024.3 - 0.0
28/09:00am 9.7 0.4 7.4 85 1.1 W 46 57 25 31 1024.1 1024.3 2.2
28/08:30am 9.6 -1.6 7.7 88 0.9 NW 56 61 30 33 1024.1 - 2.2
28/08:00am 9.4 -1.9 7.3 87 1.0 NW 56 61 30 33 1023.6 - 2.2
28/07:30am 9.1 -1.9 7.0 87 1.0 WNW 54 61 29 33 1023.3 - 2.2
28/07:00am 9.1 -2.0 7.8 92 0.6 WNW 56 65 30 35 1023.0 - 2.2
28/06:30am 9.2 -1.5 8.0 92 0.6 NW 54 61 29 33 1022.4 - 2.2
28/06:00am 8.9 -0.3 7.9 93 0.5 WNW 46 69 25 37 1022.0 1022.3 2.2
28/05:30am 9.1 -2.0 7.8 92 0.6 NW 56 65 30 35 1021.8 - 2.0
28/05:00am 9.1 -3.6 6.7 85 1.1 NW 63 70 34 38 1021.8 - 2.0
28/04:30am 9.0 -2.5 6.9 87 1.0 NW 57 69 31 37 1021.3 - 2.0
28/04:00am 9.0 -2.6 6.6 85 1.1 NW 57 67 31 36 1021.3 - 2.0
28/03:30am 8.7 -4.3 5.4 80 1.5 WNW 63 69 34 37 1021.5 - 2.0
28/03:01am 8.5 -4.2 7.0 90 0.7 WNW 63 82 34 44 1021.2 - 2.0
28/03:00am 8.5 -4.5 7.0 90 0.7 WNW 65 82 35 44 1021.2 1021.5 2.0
28/02:30am 8.1 -5.3 7.0 93 0.5 NW 67 87 36 47 1021.0 - 2.0
28/02:25am 8.7 -4.3 7.4 91 0.6 NW 65 87 35 47 1020.4 - 1.8
28/02:00am 8.4 -5.4 6.9 90 0.7 WNW 69 80 37 43 1020.3 - 1.6
28/01:30am 8.8 -3.0 7.3 90 0.7 WNW 59 69 32 37 1020.2 - 1.6
28/01:00am 8.9 -4.4 7.6 91 0.6 NW 67 74 36 40 1019.8 - 1.6
28/12:30am 8.9 -4.4 7.4 90 0.7 NW 67 76 36 41 1019.8 - 1.4
28/12:00am 9.1 -3.7 6.5 84 1.2 NW 63 74 34 40 1019.9 1020.1 1.0
 
Date/Time
EST
Temp
°C
App
Temp
°C
Dew
Point
Rel
Hum
%
Delta-T
°C
Wind Press
QNH
hPa
Press
MSL
hPa
Rain
since 9 am
mm
Dir
 
Spd
km/h
Gust
km/h
Spd
kts
Gust
kts
27/11:30pm 9.1 -2.8 6.8 85 1.1 WNW 59 76 32 41 1020.6 - 1.0
27/11:00pm 9.5 -3.3 6.5 81 1.4 NW 63 74 34 40 1020.3 - 1.0
27/10:30pm 9.3 -3.5 6.3 81 1.4 NW 63 69 34 37 1020.2 - 1.0
27/10:00pm 9.1 -1.9 6.8 85 1.1 NW 54 61 29 33 1020.3 - 1.0
27/09:30pm 9.1 -1.1 6.8 85 1.1 WNW 50 57 27 31 1020.5 - 1.0
27/09:00pm 9.1 -0.2 7.6 90 0.7 WNW 46 57 25 31 1020.3 1020.5 1.0
27/08:30pm 9.2 -0.1 7.5 89 0.8 WNW 46 54 25 29 1020.1 - 1.0
27/08:00pm 9.0 -1.2 7.1 88 0.9 WNW 50 59 27 32 1019.9 - 1.0
27/07:30pm 9.1 -1.0 7.4 89 0.8 WNW 50 59 27 32 1019.6 - 1.0
27/07:00pm 9.2 -1.0 7.1 87 1.0 WNW 50 56 27 30 1019.4 - 1.0
27/06:30pm 9.2 -2.2 6.6 84 1.2 WNW 56 63 30 34 1018.9 - 1.0
27/06:00pm 9.2 -2.9 5.9 80 1.5 WNW 59 69 32 37 1018.6 1018.8 1.0
27/05:30pm 9.4 -3.1 6.2 80 1.5 NW 61 69 33 37 1018.1 - 1.0
27/05:00pm 9.3 -2.4 6.1 80 1.5 WNW 57 69 31 37 1017.8 - 1.0
27/04:30pm 9.4 -2.8 5.5 76 1.8 WNW 59 70 32 38 1017.8 - 1.0
27/04:00pm 9.4 -2.7 6.2 80 1.5 WNW 59 72 32 39 1017.5 - 1.0
27/03:30pm 9.6 -2.1 6.2 79 1.6 WNW 57 69 31 37 1017.1 - 1.0
27/03:00pm 9.8 0.3 6.6 80 1.5 W 46 69 25 37 1016.7 1016.9 1.0
27/02:30pm 9.1 -2.6 6.3 83 1.3 WNW 57 67 31 36 1016.5 - 1.0
27/02:00pm 9.1 -2.4 6.3 83 1.3 WNW 56 67 30 36 1016.6 - 1.0
27/01:30pm 8.4 -1.2 6.2 86 1.0 WNW 46 56 25 30 1016.6 - 1.0
27/01:06pm 7.8 -0.5 6.3 90 0.7 W 39 63 21 34 1016.6 - 0.8
27/01:00pm 8.2 -0.1 6.2 87 0.9 W 39 52 21 28 1016.6 - 0.8
27/12:31pm 8.7 -0.9 6.3 85 1.1 W 46 65 25 35 1016.8 - 0.4
27/12:30pm 8.8 -1.2 6.2 84 1.2 WNW 48 65 26 35 1016.8 - 0.2
27/12:00pm 9.7 -1.1 6.0 78 1.7 WNW 52 59 28 32 1016.0 1016.3 0.2
27/11:30am 8.8 -2.9 5.5 80 1.5 WNW 56 65 30 35 1016.0 - 0.2
27/11:00am 8.3 -2.2 5.4 82 1.3 WNW 50 59 27 32 1016.4 - 0.2
27/10:30am 8.1 -3.2 5.2 82 1.3 NW 54 61 29 33 1015.8 - 0.2
27/10:00am 7.6 -2.7 4.9 83 1.2 WNW 48 57 26 31 1015.5 - 0.2
27/09:30am 7.1 -3.5 5.1 87 0.9 NW 50 56 27 30 1015.2 - 0.2
27/09:00am 6.7 -3.0 5.6 93 0.5 WNW 46 57 25 31 1015.0 1015.3 5.8
27/08:30am 6.7 -0.6 4.6 86 0.9 WNW 32 43 17 23 1015.1 - 5.6
27/08:00am 6.7 -0.8 3.4 79 1.4 W 32 43 17 23 1015.2 - 5.6
27/07:30am 7.0 -2.8 2.4 72 1.9 WNW 43 54 23 29 1014.6 - 5.6
27/07:00am 6.9 -2.9 2.0 71 2.0 W 43 52 23 28 1014.5 - 5.6
27/06:30am 6.6 -3.6 1.1 68 2.2 W 44 59 24 32 1014.2 - 5.6
27/06:06am 6.4 -3.7 1.5 71 2.0 W 44 63 24 34 1014.0 - 5.6
27/06:04am 6.3 -4.2 1.3 70 2.0 W 46 65 25 35 1014.0 - 5.6
27/06:00am 6.3 -4.3 1.0 69 2.1 W 46 65 25 35 1014.0 1014.2 5.6
27/05:56am 6.2 -4.3 1.5 72 1.9 W 46 65 25 35 1014.1 - 5.6
27/05:49am 6.0 -3.7 2.6 79 1.4 W 43 56 23 30 1014.0 - 5.6
27/05:48am 6.0 -3.0 2.6 79 1.4 W 39 54 21 29 1013.9 - 5.6
27/05:44am 5.8 -2.4 2.7 80 1.3 SW 35 61 19 33 1013.8 - 5.6
27/05:42am 5.9 -3.0 3.3 83 1.1 SW 39 61 21 33 1013.9 - 5.6
27/05:41am 6.3 -3.4 3.0 79 1.4 SW 43 54 23 29 1013.8 - 5.6
27/05:39am 6.0 -2.6 2.6 79 1.4 W 37 61 20 33 1013.5 - 5.6
27/05:35am 5.9 -3.1 2.5 79 1.4 WSW 39 50 21 27 1013.7 - 5.6
27/05:30am 5.9 -3.4 2.8 80 1.3 W 41 54 22 29 1013.8 - 5.6
27/05:27am 5.8 -3.2 2.7 80 1.3 W 39 48 21 26 1013.7 - 5.6
27/05:07am 5.3 -4.6 2.6 83 1.1 WSW 44 67 24 36 1013.7 - 5.6
27/05:03am 5.1 -4.6 2.7 84 1.0 WSW 43 61 23 33 1013.6 - 5.6
27/05:00am 5.0 -5.0 2.3 83 1.1 W 44 61 24 33 1013.6 - 5.6
27/04:51am 5.4 -5.7 2.2 80 1.3 W 50 59 27 32 1013.3 - 5.6
27/04:30am 4.6 -6.2 2.1 84 1.0 WSW 48 76 26 41 1013.7 - 5.4
27/04:26am 5.3 -5.0 2.4 81 1.2 WSW 46 76 25 41 1013.2 - 5.4
27/04:23am 5.2 -3.9 2.0 80 1.3 W 39 72 21 39 1013.3 - 5.4
27/04:22am 5.1 -3.3 1.6 78 1.4 W 35 74 19 40 1013.2 - 5.4
27/04:14am 5.4 -7.1 0.8 72 1.8 WSW 56 78 30 42 1013.3 - 5.4
27/04:07am 5.3 -7.3 1.3 75 1.6 WSW 57 78 31 42 1013.2 - 5.4
27/04:06am 5.5 -6.5 1.8 77 1.5 WSW 54 65 29 35 1013.1 - 5.4
27/04:00am 5.9 -5.7 1.4 73 1.8 W 52 76 28 41 1013.0 - 5.4
27/03:34am 5.5 -6.6 1.0 73 1.8 W 54 82 29 44 1012.5 - 5.4
27/03:30am 5.5 -6.6 1.0 73 1.8 W 54 65 29 35 1012.4 - 5.4
27/03:11am 4.4 -8.9 1.9 84 1.0 W 61 82 33 44 1012.4 - 5.4
27/03:08am 4.6 -10.2 1.6 81 1.2 W 69 82 37 44 1012.3 - 5.4
27/03:00am 4.7 -6.1 -0.3 70 1.9 W 46 74 25 40 1012.2 1012.4 5.4
27/02:57am 4.9 -7.3 0.5 73 1.7 WSW 54 74 29 40 1012.4 - 5.4
27/02:56am 5.5 -7.2 0.7 71 1.9 WSW 57 74 31 40 1012.3 - 5.4
27/02:44am 5.9 -7.1 -1.3 60 2.7 W 57 76 31 41 1011.8 - 5.4
27/02:30am 5.7 -7.0 -0.3 65 2.3 W 56 74 30 40 1011.5 - 5.4
27/02:28am 5.8 -7.0 -0.1 66 2.3 W 57 72 31 39 1011.7 - 5.4
27/02:26am 5.6 -6.3 -0.1 67 2.2 W 52 70 28 38 1011.7 - 5.4
27/02:18am 4.8 -6.7 2.3 84 1.0 W 52 69 28 37 1011.6 - 5.4
27/02:17am 5.0 -4.0 2.3 83 1.1 W 39 57 21 31 1011.4 - 5.4
27/02:14am 4.7 -4.3 2.2 84 1.0 W 39 48 21 26 1011.6 - 5.4
27/02:09am 5.0 -5.7 2.3 83 1.1 WSW 48 74 26 40 1011.6 - 5.4
27/02:00am 5.0 -7.3 2.3 83 1.1 WNW 56 74 30 40 1011.4 - 5.2
27/01:43am 4.9 -7.6 1.9 81 1.2 WNW 57 78 31 42 1010.4 - 5.2
27/01:39am 4.6 -7.3 2.1 84 1.0 WNW 54 69 29 37 1010.4 - 5.2
27/01:38am 4.6 -5.8 2.1 84 1.0 W 46 57 25 31 1010.6 - 5.2
27/01:30am 4.9 -7.2 1.1 76 1.5 WSW 54 72 29 39 1010.6 - 5.0
27/01:26am 5.0 -6.5 2.3 83 1.1 WSW 52 72 28 39 1010.6 - 5.0
27/01:24am 5.5 -5.7 2.1 79 1.4 WSW 50 65 27 35 1010.4 - 5.0
27/01:11am 5.2 -7.3 0.9 74 1.7 W 56 65 30 35 1010.2 - 5.0
27/01:07am 4.9 -3.8 2.2 83 1.1 W 37 61 20 33 1010.0 - 5.0
27/01:03am 4.1 -4.3 1.6 84 1.0 W 35 74 19 40 1010.0 - 5.0
27/01:00am 4.3 -8.0 2.1 86 0.9 WSW 56 74 30 40 1010.2 - 4.6
27/12:59am 4.4 -7.9 1.9 84 1.0 WSW 56 74 30 40 1010.1 - 4.6
27/12:56am 4.8 -8.1 1.8 81 1.2 SW 59 74 32 40 1009.9 - 4.4
27/12:55am 5.2 -7.1 2.0 80 1.3 WSW 56 74 30 40 1010.0 - 4.4
27/12:30am 6.1 -5.3 0.5 67 2.2 W 50 69 27 37 1009.4 - 4.4
27/12:06am 5.9 -3.8 0.6 69 2.1 W 41 78 22 42 1008.8 - 4.4
27/12:03am 5.6 -3.5 -0.4 65 2.3 W 37 87 20 47 1008.8 - 4.4
27/12:00am 5.1 -9.4 -1.0 65 2.3 WSW 65 87 35 47 1008.9 1009.1 4.4
 
Date/Time
EST
Temp
°C
App
Temp
°C
Dew
Point
Rel
Hum
%
Delta-T
°C
Wind Press
QNH
hPa
Press
MSL
hPa
Rain
since 9 am
mm
Dir
 
Spd
km/h
Gust
km/h
Spd
kts
Gust
kts
26/11:58pm 4.8 -10.1 -1.1 65 2.2 WSW 67 87 36 47 1009.0 - 4.4
26/11:56pm 4.9 -10.8 -0.6 67 2.1 WSW 72 87 39 47 1009.0 - 4.4
26/11:54pm 5.4 -6.0 0.3 69 2.0 W 50 74 27 40 1009.0 - 4.4
26/11:45pm 5.3 -6.9 0.4 70 1.9 W 54 82 29 44 1008.6 - 4.4
26/11:44pm 5.4 -6.7 1.1 74 1.7 W 54 65 29 35 1008.6 - 4.4
26/11:30pm 6.2 -6.3 -2.2 55 3.1 WSW 54 83 29 45 1008.1 - 4.4
26/11:00pm 6.0 -5.7 1.0 70 2.0 W 52 78 28 42 1007.1 - 4.4
26/10:58pm 5.9 -5.4 1.4 73 1.8 W 50 70 27 38 1007.2 - 4.4
26/10:55pm 5.5 -6.6 1.0 73 1.8 W 54 70 29 38 1007.0 - 4.4
26/10:44pm 5.2 -8.8 2.0 80 1.3 WSW 65 83 35 45 1006.9 - 4.2
26/10:36pm 5.8 -8.5 -0.1 66 2.3 W 65 80 35 43 1006.8 - 4.2
26/10:33pm 5.7 -4.9 0.9 71 1.9 W 46 65 25 35 1006.5 - 4.2
26/10:30pm 5.3 -7.2 1.0 74 1.7 WSW 56 83 30 45 1006.5 - 4.2
26/10:29pm 5.2 -4.9 1.5 77 1.5 W 44 59 24 32 1006.5 - 4.2
26/10:24pm 5.5 -8.1 2.3 80 1.3 WSW 63 83 34 45 1006.5 - 4.2
26/10:21pm 5.3 -10.1 1.6 77 1.5 WSW 72 80 39 43 1006.3 - 4.2
26/10:19pm 5.5 -7.7 2.3 80 1.3 WSW 61 74 33 40 1006.2 - 4.2
26/10:16pm 5.3 -5.8 2.4 81 1.2 WSW 50 69 27 37 1006.2 - 4.2
26/10:00pm 6.1 -6.2 2.0 75 1.7 W 56 74 30 40 1005.7 - 4.2
26/09:30pm 6.5 -6.1 1.6 71 2.0 W 57 83 31 45 1004.8 - 4.2
26/09:14pm 6.2 -5.8 1.8 73 1.8 W 54 87 29 47 1004.4 - 4.2
26/09:06pm 6.3 -5.5 2.5 77 1.6 W 54 80 29 43 1004.3 - 4.2
26/09:04pm 5.8 -5.8 1.9 76 1.6 W 52 69 28 37 1004.3 - 4.2
26/09:02pm 5.4 -10.3 2.2 80 1.3 WSW 74 95 40 51 1004.3 - 4.2
26/09:00pm 5.5 -11.9 2.3 80 1.3 WSW 83 95 45 51 1004.4 1004.6 4.2
26/08:30pm 6.4 -7.6 2.3 75 1.7 W 65 98 35 53 1003.0 - 4.2
26/08:00pm 6.1 -6.8 4.0 86 0.9 W 61 95 33 51 1002.1 - 4.2
26/07:30pm 6.0 -6.5 3.9 86 0.9 W 59 93 32 50 1001.3 - 4.2
26/07:17pm 7.0 -5.8 4.3 83 1.2 WSW 61 98 33 53 1000.6 - 4.2
26/07:08pm 6.8 -5.8 3.5 79 1.4 WSW 59 109 32 59 1000.0 - 4.2
26/07:03pm 6.5 -11.8 3.5 81 1.3 WSW 89 109 48 59 1000.0 - 4.0
26/07:00pm 6.9 -5.6 4.2 83 1.2 WSW 59 91 32 49 999.6 - 4.0
26/06:59pm 7.0 -5.5 4.0 81 1.3 SW 59 80 32 43 999.6 - 4.0
26/06:30pm 7.2 -5.9 2.7 73 1.9 W 61 93 33 50 998.7 - 4.0
26/06:00pm 7.4 -5.7 3.0 73 1.9 W 61 83 33 45 997.6 997.7 4.0
26/05:30pm 7.5 -6.2 3.8 77 1.6 WSW 65 87 35 47 996.4 - 4.0
26/05:00pm 7.7 -3.6 5.3 85 1.1 W 54 83 29 45 994.7 - 4.0
26/04:50pm 7.7 -5.8 5.0 83 1.2 W 65 85 35 46 994.5 - 4.0
26/04:49pm 7.7 -6.8 4.8 82 1.3 W 70 85 38 46 994.6 - 4.0
26/04:38pm 7.6 -3.2 5.9 89 0.8 W 52 74 28 40 993.8 - 4.0
26/04:30pm 6.9 -3.4 4.9 87 0.9 W 48 63 26 34 993.7 - 4.0
26/04:00pm 6.6 -4.3 5.3 91 0.6 W 52 70 28 38 993.1 - 3.6
26/03:56pm 6.2 -4.9 4.6 89 0.7 W 52 70 28 38 993.1 - 3.6
26/03:48pm 6.4 -5.3 3.6 82 1.2 W 54 93 29 50 993.2 - 3.2
26/03:47pm 7.3 -8.4 4.4 82 1.3 WNW 76 93 41 50 993.2 - 3.2
26/03:30pm 8.3 -8.4 4.8 78 1.6 WNW 82 96 44 52 990.8 - 3.2
26/03:14pm 8.2 -8.0 5.4 82 1.3 WNW 80 98 43 53 990.2 - 3.2
26/03:00pm 7.7 -7.2 6.4 91 0.6 W 74 89 40 48 990.3 990.4 3.0
26/02:30pm 7.7 -8.0 4.1 78 1.6 NW 76 91 41 49 989.5 - 3.0
26/02:00pm 7.4 -9.4 5.4 87 0.9 NW 83 109 45 59 989.0 - 2.8
26/01:45pm 8.3 -9.7 5.0 80 1.5 NW 89 111 48 60 987.1 - 2.4
26/01:30pm 7.9 -10.5 5.0 82 1.3 NW 91 106 49 57 987.8 - 2.4
26/01:00pm 7.7 -11.2 4.3 79 1.5 NW 93 106 50 57 986.6 - 2.4
26/12:49pm 7.4 -12.3 5.2 86 1.0 NW 98 117 53 63 986.6 - 2.4
26/12:43pm 6.9 -14.4 4.9 87 0.9 NW 106 117 57 63 986.0 - 2.4
26/12:38pm 7.2 -9.6 4.5 83 1.2 NW 82 102 44 55 986.4 - 2.4
26/12:30pm 7.0 -9.7 5.2 88 0.8 NW 82 95 44 51 987.2 - 2.4
26/12:05pm 7.0 -11.2 5.9 93 0.5 NW 91 109 49 59 986.4 - 1.8
26/12:00pm 7.0 -10.9 5.5 90 0.7 NW 89 104 48 56 985.9 986.0 1.6
26/11:47am 4.7 -15.5 4.5 99 0.1 NW 100 119 54 64 985.0 - 1.2
26/11:46am 4.9 -15.7 4.7 99 0.1 NW 102 119 55 64 985.6 - 1.0
26/11:30am 7.7 -8.8 4.3 79 1.5 NNW 80 104 43 56 985.4 - 0.4
26/11:03am 7.5 -10.7 4.1 79 1.5 NNW 89 107 48 58 985.6 - 0.4
26/11:00am 7.4 -11.2 4.0 79 1.5 NNW 91 107 49 58 985.2 - 0.4
26/10:30am 7.3 -12.1 3.6 77 1.6 NNW 95 117 51 63 984.8 - 0.2
26/10:00am 7.7 -13.1 3.6 75 1.8 NNW 102 122 55 66 984.1 - 0.2
26/09:30am 8.0 -13.4 2.4 68 2.4 NNW 104 130 56 70 983.0 - 0.2
26/09:00am 7.7 -9.5 3.6 75 1.8 NW 83 122 45 66 983.2 983.3 7.8
26/08:30am 7.6 -12.7 4.0 78 1.6 NNW 100 124 54 67 983.2 - 7.8
26/08:00am 5.7 -15.8 4.6 93 0.5 NNW 107 143 58 77 982.9 - 7.8
26/07:55am 5.8 -16.7 5.4 97 0.2 NNW 113 143 61 77 982.3 - 7.6

Other Formats:

Comma delimited format used in spreadsheet applications
http://www.bom.gov.au/fwo/IDT60801/IDT60801.94962.axf

JavaScript Object Notation format (JSON) in row-major order
http://www.bom.gov.au/fwo/IDT60801/IDT60801.94962.json